Time;durP1;ratioP1;P1;durP2;ratioP2;P2;SDS_P1;SDS_P2;PMS_P1;PMS_P2;Temp;Humidity;BMP_temperature;BMP_pressure;BME280_temperature;BME280_humidity;BME280_pressure;Samples;Min_cycle;Max_cycle;Signal;HPM_P1;HPM_P2
2023/05/30 00:00:20;;;;;;;10.77;3.77;;;14.30;62.60;;;;;;5053029;28;20192;-66
2023/05/30 00:02:47;;;;;;;7.07;3.43;;;14.30;62.40;;;;;;5052389;28;20271;-67
2023/05/30 00:05:15;;;;;;;9.13;2.80;;;14.50;62.60;;;;;;5052055;28;20199;-68
2023/05/30 00:07:43;;;;;;;4.10;2.57;;;14.60;61.70;;;;;;5052021;28;20556;-68
2023/05/30 00:10:10;;;;;;;7.33;3.07;;;14.60;62.00;;;;;;5052861;28;20206;-67
2023/05/30 00:12:40;;;;;;;7.80;3.20;;;14.60;61.30;;;;;;5051172;28;20188;-68
2023/05/30 00:15:08;;;;;;;5.70;3.30;;;14.80;61.00;;;;;;5048431;28;20301;-67
2023/05/30 00:17:36;;;;;;;4.70;2.57;;;14.80;60.60;;;;;;5052452;28;20191;-67
2023/05/30 00:20:04;;;;;;;8.60;2.30;;;14.80;61.10;;;;;;5050066;28;20632;-67
2023/05/30 00:22:31;;;;;;;5.97;2.60;;;15.00;60.50;;;;;;5048669;28;20552;-67
2023/05/30 00:24:59;;;;;;;6.53;2.47;;;15.00;60.60;;;;;;5047121;28;20184;-67
2023/05/30 00:27:27;;;;;;;6.40;2.57;;;15.20;59.60;;;;;;5052193;28;20195;-67
2023/05/30 00:29:54;;;;;;;7.67;2.50;;;15.30;59.40;;;;;;5035236;28;20187;-67
2023/05/30 00:32:22;;;;;;;5.77;2.40;;;15.30;58.30;;;;;;5052685;28;20196;-68
2023/05/30 00:34:49;;;;;;;6.73;2.50;;;15.50;58.10;;;;;;5052360;28;20184;-66
2023/05/30 00:37:17;;;;;;;8.37;2.33;;;15.50;57.60;;;;;;5052446;28;20191;-67
2023/05/30 00:39:44;;;;;;;5.17;2.27;;;15.60;57.30;;;;;;5051891;28;20722;-67
2023/05/30 00:42:12;;;;;;;15.73;2.70;;;15.70;57.90;;;;;;5045193;28;20638;-68
2023/05/30 00:44:39;;;;;;;7.83;2.60;;;15.80;57.40;;;;;;5049356;28;20185;-68
2023/05/30 00:47:07;;;;;;;10.87;2.93;;;16.10;56.90;;;;;;5051641;28;20654;-66
2023/05/30 00:49:35;;;;;;;4.63;2.40;;;16.10;56.40;;;;;;5051947;28;20191;-67
2023/05/30 00:52:02;;;;;;;10.47;2.73;;;16.30;56.10;;;;;;5051523;28;20187;-69
2023/05/30 00:54:29;;;;;;;4.63;2.03;;;16.40;56.10;;;;;;5051909;28;20598;-68
2023/05/30 00:56:57;;;;;;;5.07;2.20;;;16.50;55.30;;;;;;5049996;28;20240;-68
2023/05/30 00:59:25;;;;;;;5.90;2.40;;;16.60;55.40;;;;;;5049493;28;20283;-69
2023/05/30 01:01:52;;;;;;;7.00;2.60;;;16.80;54.90;;;;;;5051565;28;20183;-72
2023/05/30 01:04:19;;;;;;;7.17;1.87;;;16.90;54.60;;;;;;5051990;28;20276;-68
2023/05/30 01:06:47;;;;;;;7.50;2.10;;;17.10;54.10;;;;;;5051287;28;20201;-70
2023/05/30 01:09:14;;;;;;;7.67;2.13;;;17.20;53.40;;;;;;5051811;28;20175;-68
2023/05/30 01:12:06;;;;;;;5.07;1.70;;;17.40;52.80;;;;;;5050535;28;20195;-68
2023/05/30 01:15:00;;;;;;;17.13;2.03;;;17.60;52.30;;;;;;5047787;28;20208;-68
2023/05/30 01:17:36;;;;;;;7.33;1.90;;;17.80;52.10;;;;;;5044158;28;20191;-67
2023/05/30 01:20:12;;;;;;;5.93;1.77;;;17.90;51.40;;;;;;5049803;28;20650;-67
2023/05/30 01:23:10;;;;;;;6.13;1.90;;;18.00;50.80;;;;;;5050643;28;20183;-68
2023/05/30 01:26:22;;;;;;;6.50;2.20;;;18.10;50.80;;;;;;5051250;28;20184;-70
2023/05/30 01:28:51;;;;;;;4.53;1.63;;;18.30;51.40;;;;;;5048050;28;20183;-69
2023/05/30 01:31:20;;;;;;;3.67;1.70;;;18.30;49.90;;;;;;5047666;28;20226;-68
2023/05/30 01:33:48;;;;;;;4.50;1.73;;;18.40;50.70;;;;;;5046766;28;20492;-69
2023/05/30 01:36:16;;;;;;;6.67;1.80;;;18.60;49.90;;;;;;5051248;28;20186;-72
2023/05/30 01:38:43;;;;;;;5.53;1.73;;;18.50;50.20;;;;;;5046386;28;20255;-71
2023/05/30 01:41:26;;;;;;;3.47;1.73;;;18.60;50.00;;;;;;5051191;28;20172;-71
2023/05/30 01:44:28;;;;;;;6.30;1.20;;;18.60;50.10;;;;;;5048233;28;20187;-68
2023/05/30 01:47:39;;;;;;;2.87;1.23;;;18.70;49.40;;;;;;5049896;28;20191;-72
2023/05/30 01:50:15;;;;;;;7.60;1.60;;;18.90;49.90;;;;;;5035238;28;20210;-68
2023/05/30 01:52:47;;;;;;;5.60;1.30;;;19.30;49.30;;;;;;5050650;28;20183;-68
2023/05/30 01:55:16;;;;;;;5.13;1.90;;;19.30;48.50;;;;;;5032633;28;20592;-71
2023/05/30 01:57:48;;;;;;;2.20;1.00;;;19.20;48.50;;;;;;5050504;28;20183;-71
2023/05/30 02:00:16;;;;;;;3.60;1.37;;;19.20;48.60;;;;;;5049766;28;20179;-72
2023/05/30 02:02:45;;;;;;;4.13;1.27;;;19.30;48.60;;;;;;5051005;28;20597;-71
2023/05/30 02:05:13;;;;;;;4.30;1.50;;;19.50;48.80;;;;;;5048906;28;20191;-67
2023/05/30 02:07:40;;;;;;;3.83;1.23;;;19.60;48.10;;;;;;5054863;28;20195;-70
2023/05/30 02:10:08;;;;;;;6.17;1.40;;;19.70;47.60;;;;;;5054860;28;20645;-67
2023/05/30 02:12:35;;;;;;;5.93;1.20;;;19.60;48.10;;;;;;5054959;28;20533;-67
2023/05/30 02:15:03;;;;;;;3.77;1.30;;;19.70;48.30;;;;;;5052686;28;20230;-70
2023/05/30 02:17:31;;;;;;;7.57;1.50;;;19.80;47.80;;;;;;5054147;28;20542;-69
2023/05/30 02:19:59;;;;;;;2.13;1.03;;;19.90;47.80;;;;;;5054314;28;20211;-68
2023/05/30 02:22:26;;;;;;;3.93;1.33;;;20.00;47.90;;;;;;5054024;28;20180;-67
2023/05/30 02:24:57;;;;;;;4.33;1.20;;;20.30;47.40;;;;;;5054215;28;20198;-70
2023/05/30 02:27:24;;;;;;;4.93;1.43;;;20.60;46.70;;;;;;5051105;28;20172;-71
2023/05/30 02:29:52;;;;;;;3.93;1.20;;;20.80;45.80;;;;;;5052216;28;20211;-70
2023/05/30 02:32:19;;;;;;;5.17;1.47;;;20.70;46.10;;;;;;5054559;28;20626;-67
2023/05/30 02:34:46;;;;;;;3.23;1.43;;;20.90;46.00;;;;;;5054021;28;20199;-69
2023/05/30 02:37:14;;;;;;;5.67;1.60;;;20.90;45.60;;;;;;5051626;28;20180;-70
2023/05/30 02:39:41;;;;;;;4.40;1.20;;;20.90;45.50;;;;;;5054105;28;20227;-69
2023/05/30 02:42:09;;;;;;;4.97;1.47;;;20.80;45.50;;;;;;5052745;28;20180;-67
2023/05/30 02:44:36;;;;;;;5.10;1.47;;;20.90;45.70;;;;;;5050517;28;20246;-70
2023/05/30 02:47:03;;;;;;;4.33;1.50;;;20.90;45.80;;;;;;5053020;28;20268;-68
2023/05/30 02:49:31;;;;;;;4.87;1.47;;;20.90;45.90;;;;;;5048930;28;20173;-69
2023/05/30 02:51:58;;;;;;;2.60;1.03;;;21.00;46.10;;;;;;5052060;28;20198;-67
2023/05/30 02:54:25;;;;;;;2.10;1.17;;;21.00;45.20;;;;;;5052442;28;20444;-70
2023/05/30 02:56:53;;;;;;;7.13;1.30;;;20.90;45.10;;;;;;5048304;28;20187;-72
2023/05/30 02:59:20;;;;;;;1.93;1.00;;;21.10;45.40;;;;;;5046904;28;20212;-73
2023/05/30 03:01:47;;;;;;;1.03;0.60;;;21.00;45.00;;;;;;5051417;28;20199;-71
2023/05/30 03:04:15;;;;;;;3.70;0.90;;;20.70;45.30;;;;;;5051946;28;20206;-72
2023/05/30 03:06:42;;;;;;;2.73;0.80;;;20.80;45.30;;;;;;5053495;28;20176;-71
2023/05/30 03:09:11;;;;;;;3.50;0.90;;;20.90;44.90;;;;;;5053999;28;20277;-69
2023/05/30 03:11:39;;;;;;;3.40;1.10;;;20.80;44.90;;;;;;5051662;28;20590;-71
2023/05/30 03:14:07;;;;;;;1.63;0.93;;;21.10;45.10;;;;;;5051327;28;20183;-71
2023/05/30 03:16:34;;;;;;;4.33;1.07;;;21.40;44.40;;;;;;5048065;28;20258;-73
2023/05/30 03:19:01;;;;;;;3.37;0.93;;;21.30;44.00;;;;;;5051408;28;20243;-70
2023/05/30 03:21:29;;;;;;;4.50;1.13;;;21.50;44.50;;;;;;5053931;28;20218;-73
2023/05/30 03:23:56;;;;;;;4.37;1.20;;;21.60;44.10;;;;;;5052784;28;20187;-70
2023/05/30 03:26:24;;;;;;;2.43;0.90;;;21.70;43.70;;;;;;5052624;28;20650;-70
2023/05/30 03:28:52;;;;;;;4.43;0.93;;;22.00;43.10;;;;;;5051669;28;20177;-71
2023/05/30 03:31:20;;;;;;;1.47;0.80;;;22.20;43.30;;;;;;5052928;28;20259;-71
2023/05/30 03:33:48;;;;;;;4.00;1.00;;;22.10;42.40;;;;;;5049150;28;20175;-70
2023/05/30 03:36:15;;;;;;;2.80;0.97;;;21.90;42.90;;;;;;5052660;28;20190;-70
2023/05/30 03:38:43;;;;;;;3.63;1.20;;;22.30;43.30;;;;;;5053059;28;20210;-67
2023/05/30 03:41:10;;;;;;;5.30;1.10;;;22.80;42.70;;;;;;5052710;28;20271;-67
2023/05/30 03:43:37;;;;;;;6.20;1.13;;;22.50;42.10;;;;;;5049920;28;20180;-67
2023/05/30 03:46:05;;;;;;;3.47;0.93;;;22.00;42.90;;;;;;5049577;28;20646;-70
2023/05/30 03:48:32;;;;;;;2.20;0.80;;;21.70;43.00;;;;;;5052426;28;20188;-70
2023/05/30 03:50:59;;;;;;;4.03;0.90;;;22.00;43.20;;;;;;5049481;28;20191;-66
2023/05/30 03:53:27;;;;;;;2.93;0.90;;;21.90;43.60;;;;;;5053185;28;20270;-68
2023/05/30 03:55:54;;;;;;;2.73;0.83;;;22.30;42.20;;;;;;5049729;28;20190;-70
2023/05/30 03:58:21;;;;;;;3.53;0.80;;;22.40;41.70;;;;;;5034892;28;20584;-69
2023/05/30 04:00:48;;;;;;;1.60;0.90;;;22.30;42.20;;;;;;5053299;28;20188;-68
2023/05/30 04:03:19;;;;;;;2.60;0.70;;;22.80;41.30;;;;;;5052741;28;20180;-67
2023/05/30 04:05:48;;;;;;;1.83;1.00;;;23.00;41.60;;;;;;5052597;28;20283;-69
2023/05/30 04:08:16;;;;;;;3.07;0.80;;;23.10;40.70;;;;;;5052755;28;20662;-71
2023/05/30 04:10:44;;;;;;;2.10;0.80;;;23.40;40.00;;;;;;5052281;28;20246;-71
2023/05/30 04:13:12;;;;;;;4.17;0.90;;;22.60;40.90;;;;;;5048038;28;20192;-70
2023/05/30 04:15:39;;;;;;;2.63;0.73;;;21.80;42.70;;;;;;5053065;28;20215;-69
2023/05/30 04:18:07;;;;;;;0.97;0.60;;;21.70;42.80;;;;;;5052397;28;20215;-70
2023/05/30 04:20:35;;;;;;;2.73;0.80;;;21.50;43.00;;;;;;5047312;28;20275;-69
2023/05/30 04:23:02;;;;;;;4.77;1.10;;;21.80;43.20;;;;;;5052275;28;20706;-67
2023/05/30 04:25:30;;;;;;;4.47;1.23;;;22.10;43.00;;;;;;5050855;28;20226;-67
2023/05/30 04:27:58;;;;;;;1.60;0.80;;;22.20;43.00;;;;;;5044929;28;20177;-68
2023/05/30 04:30:26;;;;;;;3.07;1.07;;;22.50;41.70;;;;;;5051260;28;20593;-71
2023/05/30 04:32:55;;;;;;;2.10;0.80;;;22.80;42.20;;;;;;5051058;28;20222;-70
2023/05/30 04:35:23;;;;;;;8.53;1.00;;;23.20;41.10;;;;;;5052088;28;20188;-68
2023/05/30 04:37:52;;;;;;;5.13;0.80;;;23.40;40.80;;;;;;5049475;28;20184;-71
2023/05/30 04:40:19;;;;;;;2.83;0.80;;;24.00;39.60;;;;;;5050600;28;20245;-71
2023/05/30 04:42:51;;;;;;;2.13;0.77;;;24.00;39.30;;;;;;5051348;28;20337;-71
2023/05/30 04:45:19;;;;;;;0.93;0.73;;;23.90;38.90;;;;;;5042487;28;20196;-69
2023/05/30 04:47:46;;;;;;;2.20;0.83;;;23.30;39.90;;;;;;5051179;28;20650;-68
2023/05/30 04:50:17;;;;;;;2.20;0.90;;;23.30;40.20;;;;;;5050646;28;20540;-69
2023/05/30 04:52:45;;;;;;;1.60;0.80;;;23.30;40.50;;;;;;5051731;28;20503;-69
2023/05/30 04:55:13;;;;;;;3.53;0.80;;;23.10;40.60;;;;;;5048860;28;20581;-68
2023/05/30 04:57:40;;;;;;;8.07;1.20;;;23.20;40.70;;;;;;5051439;28;20190;-70
2023/05/30 05:00:14;;;;;;;1.87;0.80;;;23.80;39.70;;;;;;5048772;28;20259;-67
2023/05/30 05:02:43;;;;;;;1.30;0.77;;;24.20;38.20;;;;;;5050560;28;20192;-68
2023/05/30 05:05:10;;;;;;;2.13;0.90;;;23.80;38.80;;;;;;5050736;28;20322;-68
2023/05/30 05:07:38;;;;;;;2.70;1.00;;;23.50;39.50;;;;;;5049844;28;20231;-68
2023/05/30 05:10:05;;;;;;;1.80;0.90;;;23.50;39.40;;;;;;5051107;28;20229;-71
2023/05/30 05:12:33;;;;;;;2.97;0.90;;;23.30;39.70;;;;;;5050599;28;20206;-68
2023/05/30 05:15:00;;;;;;;3.93;0.90;;;23.40;39.70;;;;;;5049493;28;20186;-69
2023/05/30 05:17:27;;;;;;;1.10;0.60;;;23.50;39.90;;;;;;5048138;28;20610;-70
2023/05/30 05:19:54;;;;;;;1.73;0.77;;;23.90;39.50;;;;;;5050342;28;20599;-70
2023/05/30 05:22:22;;;;;;;3.27;0.90;;;24.30;38.50;;;;;;5050644;28;20270;-69
2023/05/30 05:24:50;;;;;;;4.73;1.03;;;23.90;38.90;;;;;;5050783;28;20195;-71
2023/05/30 05:27:17;;;;;;;2.67;1.00;;;23.60;39.40;;;;;;5050269;28;20261;-71
2023/05/30 05:29:44;;;;;;;1.70;0.80;;;23.50;39.20;;;;;;5046294;28;20183;-71
2023/05/30 05:32:12;;;;;;;1.37;0.70;;;23.50;39.50;;;;;;5050174;28;20700;-69
2023/05/30 05:34:39;;;;;;;2.30;0.70;;;23.70;39.20;;;;;;5049519;28;20659;-70
2023/05/30 05:37:07;;;;;;;1.63;1.00;;;23.70;39.60;;;;;;5047882;28;20196;-70
2023/05/30 05:39:34;;;;;;;1.40;0.87;;;23.40;39.80;;;;;;5048445;28;20226;-70
2023/05/30 05:42:02;;;;;;;2.93;1.00;;;23.30;39.70;;;;;;5040997;28;20190;-70
2023/05/30 05:44:30;;;;;;;2.87;1.20;;;23.30;40.30;;;;;;5048418;28;20303;-68
2023/05/30 05:46:57;;;;;;;3.87;0.87;;;23.70;39.60;;;;;;5049481;28;20262;-69
2023/05/30 05:49:25;;;;;;;3.47;0.80;;;23.50;39.40;;;;;;5048073;28;20233;-67
2023/05/30 05:51:53;;;;;;;3.97;1.07;;;23.40;39.60;;;;;;5047471;28;20195;-69
2023/05/30 05:54:20;;;;;;;1.80;0.80;;;23.40;39.90;;;;;;5046968;28;20184;-67
2023/05/30 05:56:48;;;;;;;1.90;0.90;;;23.40;39.90;;;;;;5049645;28;20184;-69
2023/05/30 05:59:15;;;;;;;3.10;0.93;;;22.80;41.30;;;;;;5047298;28;20669;-68
2023/05/30 06:01:45;;;;;;;3.33;0.80;;;22.80;41.70;;;;;;5048297;28;20292;-69
2023/05/30 06:04:13;;;;;;;3.53;0.80;;;22.60;41.70;;;;;;5049819;28;20265;-70
2023/05/30 06:06:40;;;;;;;2.23;0.87;;;22.00;42.90;;;;;;5048846;28;20638;-70
2023/05/30 06:09:08;;;;;;;3.20;0.83;;;21.60;43.90;;;;;;5050237;28;20637;-71
2023/05/30 06:11:35;;;;;;;4.70;0.87;;;21.20;45.00;;;;;;5049144;28;20184;-69
2023/05/30 06:14:02;;;;;;;4.93;1.10;;;20.90;45.70;;;;;;5047537;28;20275;-67
2023/05/30 06:16:30;;;;;;;4.17;1.10;;;20.60;46.50;;;;;;5050768;28;20191;-68
2023/05/30 06:18:57;;;;;;;6.30;1.00;;;20.30;47.00;;;;;;5050034;28;20273;-69
2023/05/30 06:21:24;;;;;;;4.37;1.07;;;20.20;47.60;;;;;;5047852;28;20271;-68
2023/05/30 06:23:52;;;;;;;1.50;0.90;;;20.10;48.20;;;;;;5046131;28;20207;-67
2023/05/30 06:26:19;;;;;;;2.63;0.73;;;20.00;48.40;;;;;;5047432;28;20180;-67
2023/05/30 06:28:50;;;;;;;1.70;0.80;;;19.80;49.00;;;;;;5048803;28;20681;-69
2023/05/30 06:31:17;;;;;;;2.10;1.00;;;19.80;49.20;;;;;;5049173;28;20234;-69
2023/05/30 06:33:45;;;;;;;3.37;1.10;;;19.70;49.70;;;;;;5046567;28;20721;-68
2023/05/30 06:36:12;;;;;;;1.80;0.80;;;19.60;50.00;;;;;;5047540;28;20618;-69
2023/05/30 06:38:40;;;;;;;4.00;1.20;;;19.50;50.20;;;;;;5049927;28;20207;-68
2023/05/30 06:41:07;;;;;;;3.60;1.50;;;19.50;50.70;;;;;;5030784;28;20199;-69
2023/05/30 06:43:35;;;;;;;1.70;0.80;;;19.30;50.90;;;;;;5046666;28;20549;-68
2023/05/30 06:46:02;;;;;;;1.87;0.90;;;19.30;51.40;;;;;;5045752;28;20200;-67
2023/05/30 06:48:29;;;;;;;6.53;1.10;;;19.20;51.90;;;;;;5050537;28;20184;-68
2023/05/30 06:50:57;;;;;;;2.57;1.20;;;19.10;52.40;;;;;;5051056;28;20187;-67
2023/05/30 06:53:24;;;;;;;5.00;1.40;;;18.90;52.60;;;;;;5053056;28;20192;-67
2023/05/30 06:55:52;;;;;;;3.10;1.10;;;18.90;52.90;;;;;;5053057;28;20590;-68
2023/05/30 06:58:19;;;;;;;3.63;1.27;;;18.80;53.00;;;;;;5054183;28;20614;-68
2023/05/30 07:00:46;;;;;;;2.67;1.03;;;18.60;53.60;;;;;;5051033;28;20218;-68
2023/05/30 07:03:14;;;;;;;3.33;1.30;;;18.60;54.00;;;;;;5049058;28;20180;-68
2023/05/30 07:05:41;;;;;;;3.07;1.10;;;18.40;54.10;;;;;;5049557;28;20188;-69
2023/05/30 07:08:08;;;;;;;2.90;1.30;;;18.30;54.90;;;;;;5048054;28;20211;-68
2023/05/30 07:10:36;;;;;;;3.40;1.37;;;18.20;54.70;;;;;;5041247;28;24018;-67
2023/05/30 07:13:03;;;;;;;3.07;1.40;;;18.10;55.10;;;;;;5053949;28;20187;-68
2023/05/30 07:15:31;;;;;;;7.13;1.27;;;18.00;55.90;;;;;;5052691;28;20720;-68
2023/05/30 07:17:59;;;;;;;1.90;1.27;;;17.90;56.00;;;;;;5032440;28;20180;-71
2023/05/30 07:20:26;;;;;;;3.13;1.50;;;17.80;56.00;;;;;;5052599;28;20206;-69
2023/05/30 07:22:54;;;;;;;3.07;1.40;;;17.70;56.50;;;;;;5051132;28;20191;-69
2023/05/30 07:25:21;;;;;;;6.93;1.83;;;17.60;57.30;;;;;;5052979;28;20270;-71
2023/05/30 07:27:48;;;;;;;4.60;1.43;;;17.50;57.90;;;;;;5052857;28;20176;-68
2023/05/30 07:30:16;;;;;;;3.27;1.50;;;17.40;58.20;;;;;;5053325;28;20235;-67
2023/05/30 07:32:43;;;;;;;3.67;1.60;;;17.30;58.20;;;;;;5052501;28;20275;-67
2023/05/30 07:35:10;;;;;;;3.27;1.50;;;17.20;59.00;;;;;;5050282;28;20190;-69
2023/05/30 07:37:38;;;;;;;4.87;1.57;;;17.20;59.50;;;;;;5048315;28;20188;-69
2023/05/30 07:40:07;;;;;;;9.90;1.80;;;17.10;60.10;;;;;;5051006;28;20223;-71
2023/05/30 07:42:38;;;;;;;2.07;1.60;;;17.10;59.80;;;;;;5046240;28;20192;-70
2023/05/30 07:45:06;;;;;;;4.27;1.47;;;17.00;60.00;;;;;;5050601;28;20225;-69
2023/05/30 07:47:33;;;;;;;4.07;1.70;;;16.90;60.30;;;;;;5049414;28;20176;-67
2023/05/30 07:50:01;;;;;;;5.97;2.00;;;16.80;60.40;;;;;;5046415;28;20195;-67
2023/05/30 07:52:28;;;;;;;3.70;1.87;;;16.80;60.60;;;;;;5047487;28;20188;-70
2023/05/30 07:54:55;;;;;;;5.37;1.97;;;16.70;61.00;;;;;;5049455;28;20823;-69
2023/05/30 07:57:23;;;;;;;2.63;1.87;;;16.70;61.30;;;;;;5049754;28;20241;-69
2023/05/30 07:59:50;;;;;;;5.03;2.30;;;16.70;61.30;;;;;;5048477;28;20216;-71
2023/05/30 08:02:19;;;;;;;6.00;2.50;;;16.60;61.50;;;;;;5046022;28;20271;-71
2023/05/30 08:04:46;;;;;;;3.47;1.80;;;16.50;61.90;;;;;;5052201;28;20180;-67
2023/05/30 08:07:13;;;;;;;9.10;2.10;;;16.50;62.00;;;;;;5050032;28;20187;-71
2023/05/30 08:09:41;;;;;;;4.03;2.10;;;16.40;62.40;;;;;;5045382;28;20186;-67
2023/05/30 08:12:16;;;;;;;6.40;2.40;;;16.30;62.80;;;;;;5052237;28;20189;-70
2023/05/30 08:14:43;;;;;;;4.93;2.53;;;16.30;62.90;;;;;;5051226;28;20171;-71
2023/05/30 08:17:15;;;;;;;7.27;2.33;;;16.20;63.10;;;;;;5047350;28;20308;-71
2023/05/30 08:19:45;;;;;;;6.80;2.17;;;16.20;63.30;;;;;;5051774;28;20237;-70
2023/05/30 08:22:12;;;;;;;11.57;2.87;;;16.10;63.60;;;;;;5046873;28;20187;-70
2023/05/30 08:24:41;;;;;;;7.30;2.33;;;16.10;63.90;;;;;;5048588;28;20183;-72
2023/05/30 08:27:10;;;;;;;6.13;2.70;;;16.10;64.00;;;;;;5049225;28;20200;-72
2023/05/30 08:29:40;;;;;;;6.40;2.90;;;16.10;64.20;;;;;;5052319;28;20574;-69
2023/05/30 08:32:08;;;;;;;7.30;3.20;;;16.10;64.30;;;;;;5050141;28;20256;-69
2023/05/30 08:34:36;;;;;;;10.90;3.20;;;16.10;64.30;;;;;;5050617;28;20259;-69
2023/05/30 08:37:04;;;;;;;6.90;3.30;;;16.10;64.20;;;;;;5049818;28;20185;-70
2023/05/30 08:39:33;;;;;;;8.47;3.20;;;16.10;64.60;;;;;;5051543;28;20246;-68
2023/05/30 08:42:00;;;;;;;6.83;2.57;;;16.10;64.10;;;;;;5051972;28;20204;-69
2023/05/30 08:44:30;;;;;;;5.60;2.97;;;16.20;63.90;;;;;;5048830;28;20188;-68
2023/05/30 08:46:59;;;;;;;7.67;2.53;;;16.20;63.80;;;;;;5050650;28;20298;-70
2023/05/30 08:49:33;;;;;;;5.87;2.60;;;16.20;63.90;;;;;;5050134;28;20195;-71
2023/05/30 08:52:03;;;;;;;7.87;2.53;;;16.20;64.20;;;;;;5048162;28;20674;-72
2023/05/30 08:54:36;;;;;;;5.77;2.63;;;16.10;64.20;;;;;;5045929;28;20661;-71
2023/05/30 08:57:13;;;;;;;6.13;2.30;;;16.00;64.10;;;;;;5050776;28;20308;-70
2023/05/30 08:59:42;;;;;;;8.53;2.20;;;16.10;63.80;;;;;;5048143;28;20258;-68
2023/05/30 09:02:10;;;;;;;5.60;2.47;;;16.00;64.00;;;;;;5050378;28;20664;-68
2023/05/30 09:04:38;;;;;;;3.60;2.40;;;16.00;64.00;;;;;;5050465;28;20232;-71
2023/05/30 09:07:07;;;;;;;9.33;3.20;;;16.00;64.10;;;;;;5051633;28;20274;-69
2023/05/30 09:09:35;;;;;;;5.77;2.13;;;15.90;64.30;;;;;;5047536;28;20193;-70
2023/05/30 09:12:02;;;;;;;5.47;2.20;;;15.90;64.40;;;;;;5047487;28;20200;-69
2023/05/30 09:14:30;;;;;;;7.50;2.73;;;15.80;64.50;;;;;;5051278;28;20187;-70
2023/05/30 09:16:57;;;;;;;3.47;1.90;;;15.80;64.00;;;;;;5050580;28;20636;-68
2023/05/30 09:19:25;;;;;;;5.93;2.00;;;15.90;63.70;;;;;;5049779;28;20208;-69
2023/05/30 09:21:53;;;;;;;5.50;2.30;;;15.90;63.50;;;;;;5048006;28;20174;-71
2023/05/30 09:24:21;;;;;;;5.90;1.93;;;15.90;63.10;;;;;;5047113;28;20184;-67
2023/05/30 09:27:01;;;;;;;4.80;2.10;;;15.90;63.20;;;;;;5050017;28;20183;-67
2023/05/30 09:29:28;;;;;;;2.87;1.77;;;15.90;63.40;;;;;;5047233;28;20176;-70
2023/05/30 09:31:56;;;;;;;3.67;1.80;;;15.80;63.30;;;;;;5047540;28;20232;-69
2023/05/30 09:34:23;;;;;;;5.03;1.80;;;15.80;63.40;;;;;;5051502;28;20176;-68
2023/05/30 09:36:55;;;;;;;3.03;1.90;;;15.80;63.20;;;;;;5051131;28;20650;-68
2023/05/30 09:39:26;;;;;;;5.47;1.90;;;15.80;63.20;;;;;;5049071;28;20292;-68
2023/05/30 09:41:59;;;;;;;3.13;1.60;;;15.70;63.40;;;;;;5050202;28;20180;-67
2023/05/30 09:44:27;;;;;;;3.23;1.80;;;15.70;63.50;;;;;;5045529;28;20203;-67
2023/05/30 09:46:58;;;;;;;9.30;2.17;;;15.60;63.80;;;;;;5034993;28;20188;-67
2023/05/30 09:49:28;;;;;;;3.30;1.93;;;15.60;64.00;;;;;;5047667;28;20651;-68
2023/05/30 09:51:56;;;;;;;4.50;1.97;;;15.50;64.30;;;;;;5049614;28;20187;-66
2023/05/30 09:54:24;;;;;;;6.53;2.30;;;15.50;64.50;;;;;;5049367;28;20246;-67
2023/05/30 09:56:53;;;;;;;2.80;1.73;;;15.50;64.90;;;;;;5050764;28;20207;-71
2023/05/30 09:59:23;;;;;;;4.30;1.80;;;15.40;64.60;;;;;;5050701;28;20216;-70
2023/05/30 10:01:51;;;;;;;3.30;1.80;;;15.40;64.40;;;;;;5049528;28;20214;-68
2023/05/30 10:04:20;;;;;;;3.97;2.03;;;15.50;64.10;;;;;;5043401;28;20204;-68
2023/05/30 10:06:51;;;;;;;3.40;2.03;;;15.50;63.90;;;;;;5047459;28;20541;-67
2023/05/30 10:09:21;;;;;;;6.07;1.83;;;15.50;63.80;;;;;;5049951;28;20184;-67
2023/05/30 10:11:50;;;;;;;4.17;1.90;;;15.50;63.40;;;;;;5048390;28;20180;-68
2023/05/30 10:14:18;;;;;;;3.47;1.87;;;15.60;63.20;;;;;;5044155;28;20211;-67
2023/05/30 10:16:56;;;;;;;3.87;1.77;;;15.70;62.70;;;;;;5050547;28;20180;-68
2023/05/30 10:19:35;;;;;;;2.40;1.60;;;15.70;62.80;;;;;;5050188;28;20269;-70
2023/05/30 10:22:08;;;;;;;3.60;1.50;;;15.70;62.40;;;;;;5049218;28;20179;-68
2023/05/30 10:24:36;;;;;;;4.10;2.07;;;15.70;62.60;;;;;;5049293;28;20189;-67
2023/05/30 10:27:04;;;;;;;4.87;1.60;;;15.70;62.70;;;;;;5053365;28;20646;-68
2023/05/30 10:29:48;;;;;;;4.77;2.00;;;15.60;62.80;;;;;;5046374;28;21764;-67
2023/05/30 10:32:25;;;;;;;3.47;1.73;;;15.60;63.00;;;;;;5052731;28;20219;-69
2023/05/30 10:35:12;;;;;;;4.90;2.10;;;15.60;63.00;;;;;;5052468;28;20192;-67
2023/05/30 10:37:39;;;;;;;5.23;1.63;;;15.50;63.30;;;;;;5051845;28;20189;-71
2023/05/30 10:40:16;;;;;;;3.47;1.83;;;15.50;63.50;;;;;;5053341;28;20208;-68
2023/05/30 10:43:05;;;;;;;3.93;1.70;;;15.40;63.60;;;;;;5052727;28;20225;-67
2023/05/30 10:46:04;;;;;;;4.70;1.60;;;15.40;63.70;;;;;;5051665;28;20218;-67
2023/05/30 10:48:51;;;;;;;2.70;1.47;;;15.30;63.80;;;;;;5052213;28;20634;-67
2023/05/30 10:51:19;;;;;;;3.30;2.00;;;15.40;63.50;;;;;;5053381;28;20183;-68
2023/05/30 10:53:48;;;;;;;2.87;1.73;;;15.40;63.50;;;;;;5051043;28;20636;-67
2023/05/30 10:56:34;;;;;;;2.17;1.47;;;15.40;63.70;;;;;;5053818;28;20208;-68
2023/05/30 10:59:15;;;;;;;4.03;1.60;;;15.30;63.50;;;;;;5054966;28;20215;-67
2023/05/30 11:02:20;;;;;;;2.47;1.60;;;15.30;63.50;;;;;;5054005;28;20184;-67
2023/05/30 11:04:51;;;;;;;3.23;1.50;;;15.30;63.70;;;;;;5051505;28;20188;-67
2023/05/30 11:07:18;;;;;;;3.17;1.40;;;15.20;63.90;;;;;;5053195;28;20226;-67
2023/05/30 11:10:03;;;;;;;2.60;1.23;;;15.20;64.40;;;;;;5052615;28;20207;-67
2023/05/30 11:12:31;;;;;;;2.17;1.47;;;15.20;64.60;;;;;;5053343;28;20186;-67
2023/05/30 11:15:00;;;;;;;6.17;1.87;;;15.10;64.90;;;;;;5051189;28;20198;-67
2023/05/30 11:17:35;;;;;;;1.93;1.37;;;15.00;65.00;;;;;;5049629;28;20195;-66
2023/05/30 11:20:14;;;;;;;5.87;1.67;;;14.90;65.30;;;;;;5052892;28;20786;-68
2023/05/30 11:23:02;;;;;;;3.50;1.50;;;14.80;65.60;;;;;;5052249;28;20184;-68
2023/05/30 11:25:32;;;;;;;2.17;1.40;;;14.80;66.10;;;;;;5036852;28;20199;-66
2023/05/30 11:28:10;;;;;;;2.37;1.43;;;14.80;66.50;;;;;;5051965;28;20187;-68
2023/05/30 11:30:43;;;;;;;2.70;1.50;;;14.70;66.60;;;;;;5052198;28;20231;-70
2023/05/30 11:33:12;;;;;;;2.50;1.50;;;14.60;66.60;;;;;;5051380;28;20637;-67
2023/05/30 11:35:43;;;;;;;2.70;1.90;;;14.60;66.80;;;;;;5052441;28;20188;-70
2023/05/30 11:38:15;;;;;;;2.00;1.50;;;14.70;66.80;;;;;;5044472;28;20807;-67
2023/05/30 11:40:43;;;;;;;2.07;1.50;;;14.60;66.70;;;;;;5052948;28;20191;-67
2023/05/30 11:43:14;;;;;;;2.83;1.77;;;14.60;66.60;;;;;;5050237;28;20195;-67
2023/05/30 11:45:42;;;;;;;3.30;1.60;;;14.60;67.10;;;;;;5052896;28;20188;-67
2023/05/30 11:48:12;;;;;;;4.73;1.90;;;14.50;67.20;;;;;;5049789;28;20231;-68
2023/05/30 11:50:41;;;;;;;4.23;2.00;;;14.40;67.60;;;;;;5053164;28;20545;-72
2023/05/30 11:53:14;;;;;;;3.83;1.93;;;14.30;68.00;;;;;;5052144;28;20234;-71
2023/05/30 11:55:50;;;;;;;3.83;1.63;;;14.20;68.80;;;;;;5051708;28;20188;-71
2023/05/30 11:58:18;;;;;;;2.53;2.00;;;14.10;69.40;;;;;;5030839;28;20188;-71
2023/05/30 12:00:47;;;;;;;5.30;2.50;;;14.00;69.90;;;;;;5052599;28;20275;-71
2023/05/30 12:03:18;;;;;;;7.90;2.93;;;13.90;70.50;;;;;;5052888;28;20194;-69
2023/05/30 12:05:46;;;;;;;4.20;2.53;;;13.90;71.00;;;;;;5052112;28;20194;-71
2023/05/30 12:08:16;;;;;;;5.40;2.83;;;13.80;71.10;;;;;;5052334;28;20188;-71
2023/05/30 12:10:44;;;;;;;5.83;2.63;;;13.80;71.50;;;;;;5053257;28;20184;-71
2023/05/30 12:13:11;;;;;;;6.03;2.83;;;13.70;71.70;;;;;;5049299;28;20184;-70
2023/05/30 12:15:39;;;;;;;3.87;2.40;;;13.60;71.80;;;;;;5052314;28;20271;-71
2023/05/30 12:18:06;;;;;;;5.97;2.80;;;13.60;72.40;;;;;;5052302;28;20184;-70
2023/05/30 12:20:43;;;;;;;5.57;2.70;;;13.60;72.80;;;;;;5052488;28;20188;-72
2023/05/30 12:23:10;;;;;;;6.93;2.97;;;13.50;72.60;;;;;;5048686;28;20547;-70
2023/05/30 12:25:38;;;;;;;10.50;3.47;;;13.50;73.20;;;;;;5052619;28;20546;-71
2023/05/30 12:28:06;;;;;;;11.60;2.90;;;13.50;73.20;;;;;;5055140;28;20201;-71
2023/05/30 12:30:37;;;;;;;6.53;3.27;;;13.50;73.50;;;;;;5051740;28;20571;-70
2023/05/30 12:33:24;;;;;;;4.23;3.00;;;13.30;73.80;;;;;;5052411;28;20191;-71
2023/05/30 12:35:55;;;;;;;8.13;3.07;;;13.20;74.00;;;;;;5048394;28;20283;-70
2023/05/30 12:38:24;;;;;;;7.30;3.23;;;13.20;74.10;;;;;;5052027;28;20176;-70
2023/05/30 12:40:52;;;;;;;6.47;3.00;;;13.20;74.60;;;;;;5051442;28;20654;-70
2023/05/30 12:43:28;;;;;;;7.87;3.33;;;13.20;74.60;;;;;;5052247;28;20241;-71
2023/05/30 12:46:12;;;;;;;6.67;2.60;;;13.20;74.70;;;;;;5051634;28;20207;-72
2023/05/30 12:48:39;;;;;;;6.13;2.90;;;13.20;74.90;;;;;;5052836;28;20180;-69
2023/05/30 12:51:06;;;;;;;8.57;3.57;;;13.10;75.00;;;;;;5050223;28;20271;-69
2023/05/30 12:53:34;;;;;;;7.10;3.37;;;13.10;75.20;;;;;;5050732;28;20180;-70
2023/05/30 12:56:01;;;;;;;6.17;3.03;;;13.00;75.40;;;;;;5051301;28;20184;-72
2023/05/30 12:58:28;;;;;;;6.63;2.80;;;13.00;75.60;;;;;;5046050;28;20226;-73